sensor_id;sensor_type;location;lat;lon;timestamp;pressure;altitude;pressure_sealevel;temperature;humidity
10806;BME280;5455;53.224;6.000;2022-10-12T00:01:06;102568.00;;;7.69;100.00
10806;BME280;5455;53.224;6.000;2022-10-12T00:03:34;102564.16;;;7.70;100.00
10806;BME280;5455;53.224;6.000;2022-10-12T00:06:04;102566.91;;;7.70;100.00
10806;BME280;5455;53.224;6.000;2022-10-12T00:08:33;102569.38;;;7.72;100.00
10806;BME280;5455;53.224;6.000;2022-10-12T00:11:01;102571.53;;;7.75;100.00
10806;BME280;5455;53.224;6.000;2022-10-12T00:13:29;102568.47;;;7.76;100.00
10806;BME280;5455;53.224;6.000;2022-10-12T00:16:01;102566.53;;;7.77;100.00
10806;BME280;5455;53.224;6.000;2022-10-12T00:18:30;102561.56;;;7.79;100.00
10806;BME280;5455;53.224;6.000;2022-10-12T00:21:05;102567.56;;;7.81;100.00
10806;BME280;5455;53.224;6.000;2022-10-12T00:23:34;102570.03;;;7.83;100.00
10806;BME280;5455;53.224;6.000;2022-10-12T00:26:07;102574.00;;;7.90;100.00
10806;BME280;5455;53.224;6.000;2022-10-12T00:28:35;102570.16;;;7.91;100.00
10806;BME280;5455;53.224;6.000;2022-10-12T00:31:08;102568.50;;;7.90;100.00
10806;BME280;5455;53.224;6.000;2022-10-12T00:33:36;102572.91;;;7.91;100.00
10806;BME280;5455;53.224;6.000;2022-10-12T00:38:42;102569.94;;;7.88;100.00
10806;BME280;5455;53.224;6.000;2022-10-12T00:41:11;102573.81;;;7.87;100.00
10806;BME280;5455;53.224;6.000;2022-10-12T00:43:40;102574.81;;;7.91;100.00
10806;BME280;5455;53.224;6.000;2022-10-12T00:51:48;102560.88;;;7.87;100.00
10806;BME280;5455;53.224;6.000;2022-10-12T00:54:20;102569.94;;;7.88;100.00
10806;BME280;5455;53.224;6.000;2022-10-12T00:56:52;102564.97;;;7.90;100.00
10806;BME280;5455;53.224;6.000;2022-10-12T00:59:23;102565.50;;;7.92;100.00
10806;BME280;5455;53.224;6.000;2022-10-12T01:01:53;102568.22;;;7.92;100.00
10806;BME280;5455;53.224;6.000;2022-10-12T01:04:22;102571.47;;;7.94;100.00
10806;BME280;5455;53.224;6.000;2022-10-12T01:06:51;102573.13;;;7.95;100.00
10806;BME280;5455;53.224;6.000;2022-10-12T01:09:19;102569.28;;;7.96;100.00
10806;BME280;5455;53.224;6.000;2022-10-12T01:11:47;102564.66;;;7.91;100.00
10806;BME280;5455;53.224;6.000;2022-10-12T01:14:15;102564.66;;;7.91;100.00
10806;BME280;5455;53.224;6.000;2022-10-12T01:16:58;102563.84;;;7.91;100.00
10806;BME280;5455;53.224;6.000;2022-10-12T01:22:47;102567.84;;;7.98;100.00
10806;BME280;5455;53.224;6.000;2022-10-12T01:28:17;102568.88;;;8.02;100.00
10806;BME280;5455;53.224;6.000;2022-10-12T01:30:55;102562.59;;;8.02;100.00
10806;BME280;5455;53.224;6.000;2022-10-12T01:33:35;102555.66;;;8.04;100.00
10806;BME280;5455;53.224;6.000;2022-10-12T01:41:46;102544.72;;;8.18;100.00
10806;BME280;5455;53.224;6.000;2022-10-12T01:44:20;102543.00;;;8.22;100.00
10806;BME280;5455;53.224;6.000;2022-10-12T01:46:47;102541.06;;;8.22;100.00
10806;BME280;5455;53.224;6.000;2022-10-12T01:49:18;102542.91;;;8.27;100.00
10806;BME280;5455;53.224;6.000;2022-10-12T01:57:43;102539.34;;;8.26;100.00
10806;BME280;5455;53.224;6.000;2022-10-12T02:00:15;102535.25;;;8.24;100.00
10806;BME280;5455;53.224;6.000;2022-10-12T02:05:49;102537.66;;;8.30;100.00
10806;BME280;5455;53.224;6.000;2022-10-12T02:08:31;102529.13;;;8.32;100.00
10806;BME280;5455;53.224;6.000;2022-10-12T02:11:07;102531.56;;;8.34;100.00
10806;BME280;5455;53.224;6.000;2022-10-12T02:13:40;102533.78;;;8.32;100.00
10806;BME280;5455;53.224;6.000;2022-10-12T02:16:12;102528.81;;;8.34;100.00
10806;BME280;5455;53.224;6.000;2022-10-12T02:18:43;102530.72;;;8.33;100.00
10806;BME280;5455;53.224;6.000;2022-10-12T02:21:15;102526.28;;;8.37;100.00
10806;BME280;5455;53.224;6.000;2022-10-12T02:23:45;102522.59;;;8.42;100.00
10806;BME280;5455;53.224;6.000;2022-10-12T02:26:14;102520.38;;;8.44;100.00
10806;BME280;5455;53.224;6.000;2022-10-12T02:28:44;102523.84;;;8.49;100.00
10806;BME280;5455;53.224;6.000;2022-10-12T02:31:28;102518.56;;;8.53;100.00
10806;BME280;5455;53.224;6.000;2022-10-12T02:34:17;102518.75;;;8.56;100.00
10806;BME280;5455;53.224;6.000;2022-10-12T02:36:51;102520.69;;;8.56;100.00
10806;BME280;5455;53.224;6.000;2022-10-12T02:39:24;102512.75;;;8.54;100.00
10806;BME280;5455;53.224;6.000;2022-10-12T02:41:56;102513.25;;;8.56;100.00
10806;BME280;5455;53.224;6.000;2022-10-12T02:44:30;102505.53;;;8.58;100.00
10806;BME280;5455;53.224;6.000;2022-10-12T02:47:01;102507.13;;;8.59;100.00
10806;BME280;5455;53.224;6.000;2022-10-12T02:49:30;102509.38;;;8.57;100.00
10806;BME280;5455;53.224;6.000;2022-10-12T02:52:03;102504.50;;;8.54;100.00
10806;BME280;5455;53.224;6.000;2022-10-12T02:54:31;102498.72;;;8.56;100.00
10806;BME280;5455;53.224;6.000;2022-10-12T02:56:59;102489.84;;;8.59;100.00
10806;BME280;5455;53.224;6.000;2022-10-12T02:59:26;102499.22;;;8.58;100.00
10806;BME280;5455;53.224;6.000;2022-10-12T03:01:54;102496.66;;;8.61;100.00
10806;BME280;5455;53.224;6.000;2022-10-12T03:04:21;102491.16;;;8.61;100.00
10806;BME280;5455;53.224;6.000;2022-10-12T03:06:49;102489.53;;;8.60;100.00
10806;BME280;5455;53.224;6.000;2022-10-12T03:09:16;102484.03;;;8.60;100.00
10806;BME280;5455;53.224;6.000;2022-10-12T03:11:44;102480.78;;;8.58;100.00
10806;BME280;5455;53.224;6.000;2022-10-12T03:14:13;102484.63;;;8.57;100.00
10806;BME280;5455;53.224;6.000;2022-10-12T03:16:41;102484.34;;;8.59;100.00
10806;BME280;5455;53.224;6.000;2022-10-12T03:19:09;102492.06;;;8.57;100.00
10806;BME280;5455;53.224;6.000;2022-10-12T03:21:37;102479.25;;;8.52;100.00
10806;BME280;5455;53.224;6.000;2022-10-12T03:24:05;102475.38;;;8.53;100.00
10806;BME280;5455;53.224;6.000;2022-10-12T03:26:33;102478.94;;;8.54;100.00
10806;BME280;5455;53.224;6.000;2022-10-12T03:29:00;102484.44;;;8.54;100.00
10806;BME280;5455;53.224;6.000;2022-10-12T03:31:28;102474.56;;;8.53;100.00
10806;BME280;5455;53.224;6.000;2022-10-12T03:33:55;102470.47;;;8.50;100.00
10806;BME280;5455;53.224;6.000;2022-10-12T03:36:23;102477.13;;;8.49;100.00
10806;BME280;5455;53.224;6.000;2022-10-12T03:38:50;102474.97;;;8.46;100.00
10806;BME280;5455;53.224;6.000;2022-10-12T03:41:17;102469.75;;;8.45;100.00
10806;BME280;5455;53.224;6.000;2022-10-12T03:43:45;102463.78;;;8.43;100.00
10806;BME280;5455;53.224;6.000;2022-10-12T03:46:12;102470.09;;;8.43;100.00
10806;BME280;5455;53.224;6.000;2022-10-12T03:48:40;102468.16;;;8.44;100.00
10806;BME280;5455;53.224;6.000;2022-10-12T03:51:08;102473.94;;;8.42;100.00
10806;BME280;5455;53.224;6.000;2022-10-12T03:53:35;102463.56;;;8.39;100.00
10806;BME280;5455;53.224;6.000;2022-10-12T03:56:07;102460.31;;;8.37;100.00
10806;BME280;5455;53.224;6.000;2022-10-12T03:58:35;102465.31;;;8.35;100.00
10806;BME280;5455;53.224;6.000;2022-10-12T04:01:03;102459.28;;;8.33;100.00
10806;BME280;5455;53.224;6.000;2022-10-12T04:03:30;102460.91;;;8.34;100.00
10806;BME280;5455;53.224;6.000;2022-10-12T04:05:58;102461.72;;;8.35;100.00
10806;BME280;5455;53.224;6.000;2022-10-12T04:08:26;102462.03;;;8.33;100.00
10806;BME280;5455;53.224;6.000;2022-10-12T04:10:54;102459.28;;;8.33;100.00
10806;BME280;5455;53.224;6.000;2022-10-12T04:13:21;102456.84;;;8.32;100.00
10806;BME280;5455;53.224;6.000;2022-10-12T04:15:49;102458.44;;;8.32;100.00
10806;BME280;5455;53.224;6.000;2022-10-12T04:18:16;102456.84;;;8.32;100.00
10806;BME280;5455;53.224;6.000;2022-10-12T04:20:47;102456.84;;;8.32;100.00
10806;BME280;5455;53.224;6.000;2022-10-12T04:23:15;102457.94;;;8.30;100.00
10806;BME280;5455;53.224;6.000;2022-10-12T04:25:42;102464.56;;;8.29;100.00
10806;BME280;5455;53.224;6.000;2022-10-12T04:28:10;102454.72;;;8.28;100.00
10806;BME280;5455;53.224;6.000;2022-10-12T04:30:37;102463.78;;;8.29;100.00
10806;BME280;5455;53.224;6.000;2022-10-12T04:33:04;102456.63;;;8.28;100.00
10806;BME280;5455;53.224;6.000;2022-10-12T04:35:32;102451.97;;;8.28;100.00
10806;BME280;5455;53.224;6.000;2022-10-12T04:38:00;102456.03;;;8.31;100.00
10806;BME280;5455;53.224;6.000;2022-10-12T04:40:27;102459.81;;;8.35;100.00
10806;BME280;5455;53.224;6.000;2022-10-12T04:42:55;102458.38;;;8.38;100.00
10806;BME280;5455;53.224;6.000;2022-10-12T04:45:23;102460.81;;;8.39;100.00
10806;BME280;5455;53.224;6.000;2022-10-12T04:47:50;102460.19;;;8.42;100.00
10806;BME280;5455;53.224;6.000;2022-10-12T04:50:17;102461.53;;;8.45;100.00
10806;BME280;5455;53.224;6.000;2022-10-12T04:52:45;102461.03;;;8.43;100.00
10806;BME280;5455;53.224;6.000;2022-10-12T04:55:12;102461.31;;;8.41;100.00
10806;BME280;5455;53.224;6.000;2022-10-12T04:57:40;102459.81;;;8.35;100.00
10806;BME280;5455;53.224;6.000;2022-10-12T05:00:08;102467.03;;;8.31;100.00
10806;BME280;5455;53.224;6.000;2022-10-12T05:02:36;102464.34;;;8.26;100.00
10806;BME280;5455;53.224;6.000;2022-10-12T05:05:03;102459.47;;;8.23;100.00
10806;BME280;5455;53.224;6.000;2022-10-12T05:07:31;102460.56;;;8.22;100.00
10806;BME280;5455;53.224;6.000;2022-10-12T05:09:59;102461.16;;;8.19;100.00
10806;BME280;5455;53.224;6.000;2022-10-12T05:12:26;102457.38;;;8.15;100.00
10806;BME280;5455;53.224;6.000;2022-10-12T05:14:54;102450.91;;;8.11;100.00
10806;BME280;5455;53.224;6.000;2022-10-12T05:17:21;102445.41;;;8.11;100.00
10806;BME280;5455;53.224;6.000;2022-10-12T05:19:49;102450.06;;;8.10;100.00
10806;BME280;5455;53.224;6.000;2022-10-12T05:22:16;102444.56;;;8.10;100.00
10806;BME280;5455;53.224;6.000;2022-10-12T05:24:44;102438.25;;;8.10;100.00
10806;BME280;5455;53.224;6.000;2022-10-12T05:27:16;102447.13;;;8.07;100.00
10806;BME280;5455;53.224;6.000;2022-10-12T05:29:43;102439.69;;;8.07;100.00
10806;BME280;5455;53.224;6.000;2022-10-12T05:32:11;102438.25;;;8.10;100.00
10806;BME280;5455;53.224;6.000;2022-10-12T05:34:38;102440.69;;;8.11;100.00
10806;BME280;5455;53.224;6.000;2022-10-12T05:37:06;102438.25;;;8.10;100.00
10806;BME280;5455;53.224;6.000;2022-10-12T05:39:33;102441.84;;;8.10;100.00
10806;BME280;5455;53.224;6.000;2022-10-12T05:42:02;102441.31;;;8.08;100.00
10806;BME280;5455;53.224;6.000;2022-10-12T05:44:30;102442.13;;;8.09;100.00
10806;BME280;5455;53.224;6.000;2022-10-12T05:46:57;102445.19;;;8.07;100.00
10806;BME280;5455;53.224;6.000;2022-10-12T05:49:25;102449.03;;;8.06;100.00
10806;BME280;5455;53.224;6.000;2022-10-12T05:51:52;102441.13;;;8.05;100.00
10806;BME280;5455;53.224;6.000;2022-10-12T05:54:20;102438.66;;;8.03;100.00
10806;BME280;5455;53.224;6.000;2022-10-12T05:56:47;102441.13;;;8.05;100.00
10806;BME280;5455;53.224;6.000;2022-10-12T05:59:14;102433.97;;;8.04;100.00
10806;BME280;5455;53.224;6.000;2022-10-12T06:01:42;102444.66;;;8.05;100.00
10806;BME280;5455;53.224;6.000;2022-10-12T06:04:10;102437.84;;;8.03;100.00
10806;BME280;5455;53.224;6.000;2022-10-12T06:06:39;102434.59;;;8.01;100.00
10806;BME280;5455;53.224;6.000;2022-10-12T06:09:06;102433.25;;;7.98;100.00
10806;BME280;5455;53.224;6.000;2022-10-12T06:11:33;102434.69;;;7.96;100.00
10806;BME280;5455;53.224;6.000;2022-10-12T06:14:03;102429.19;;;7.96;100.00
10806;BME280;5455;53.224;6.000;2022-10-12T06:16:30;102431.34;;;7.99;100.00
10806;BME280;5455;53.224;6.000;2022-10-12T06:18:58;102427.56;;;7.95;100.00
10806;BME280;5455;53.224;6.000;2022-10-12T06:21:26;102434.69;;;7.96;100.00
10806;BME280;5455;53.224;6.000;2022-10-12T06:24:01;102431.53;;;8.02;100.00
10806;BME280;5455;53.224;6.000;2022-10-12T06:26:29;102429.59;;;8.03;100.00
10806;BME280;5455;53.224;6.000;2022-10-12T06:28:56;102426.25;;;8.06;100.00
10806;BME280;5455;53.224;6.000;2022-10-12T06:31:24;102422.50;;;8.15;100.00
10806;BME280;5455;53.224;6.000;2022-10-12T06:33:52;102426.56;;;8.18;100.00
10806;BME280;5455;53.224;6.000;2022-10-12T06:36:19;102426.56;;;8.18;100.00
10806;BME280;5455;53.224;6.000;2022-10-12T06:38:47;102428.69;;;8.21;100.00
10806;BME280;5455;53.224;6.000;2022-10-12T06:41:14;102423.91;;;8.26;100.00
10806;BME280;5455;53.224;6.000;2022-10-12T06:43:42;102426.09;;;8.29;100.00
10806;BME280;5455;53.224;6.000;2022-10-12T06:46:09;102423.25;;;8.35;100.00
10806;BME280;5455;53.224;6.000;2022-10-12T06:48:38;102421.22;;;8.40;100.00
10806;BME280;5455;53.224;6.000;2022-10-12T06:51:05;102418.25;;;8.50;100.00
10806;BME280;5455;53.224;6.000;2022-10-12T06:53:33;102417.53;;;8.58;100.00
10806;BME280;5455;53.224;6.000;2022-10-12T06:56:08;102418.75;;;8.66;100.00
10806;BME280;5455;53.224;6.000;2022-10-12T06:58:36;102420.25;;;8.72;100.00
10806;BME280;5455;53.224;6.000;2022-10-12T07:01:06;102417.41;;;8.77;100.00
10806;BME280;5455;53.224;6.000;2022-10-12T07:03:34;102421.16;;;8.81;100.00
10806;BME280;5455;53.224;6.000;2022-10-12T07:06:08;102420.53;;;8.84;100.00
10806;BME280;5455;53.224;6.000;2022-10-12T07:08:37;102419.94;;;8.87;100.00
10806;BME280;5455;53.224;6.000;2022-10-12T07:11:06;102422.88;;;8.91;100.00
10806;BME280;5455;53.224;6.000;2022-10-12T07:13:34;102419.50;;;8.94;100.00
10806;BME280;5455;53.224;6.000;2022-10-12T07:16:02;102418.28;;;9.00;100.00
10806;BME280;5455;53.224;6.000;2022-10-12T07:18:30;102418.97;;;9.05;100.00
10806;BME280;5455;53.224;6.000;2022-10-12T07:20:58;102416.91;;;9.11;100.00
10806;BME280;5455;53.224;6.000;2022-10-12T07:23:26;102419.44;;;9.21;100.00
10806;BME280;5455;53.224;6.000;2022-10-12T07:25:53;102424.19;;;9.29;100.00
10806;BME280;5455;53.224;6.000;2022-10-12T07:28:21;102428.97;;;9.37;100.00
10806;BME280;5455;53.224;6.000;2022-10-12T07:30:49;102427.25;;;9.50;100.00
10806;BME280;5455;53.224;6.000;2022-10-12T07:33:16;102419.38;;;9.57;100.00
10806;BME280;5455;53.224;6.000;2022-10-12T07:35:52;102419.44;;;9.65;100.00
10806;BME280;5455;53.224;6.000;2022-10-12T07:38:40;102420.78;;;9.76;100.00
10806;BME280;5455;53.224;6.000;2022-10-12T07:41:11;102420.72;;;9.90;100.00
10806;BME280;5455;53.224;6.000;2022-10-12T07:43:39;102420.28;;;9.96;100.00
10806;BME280;5455;53.224;6.000;2022-10-12T07:46:07;102424.06;;;10.09;100.00
10806;BME280;5455;53.224;6.000;2022-10-12T07:48:34;102424.44;;;10.16;100.00
10806;BME280;5455;53.224;6.000;2022-10-12T07:51:06;102425.00;;;10.27;100.00
10806;BME280;5455;53.224;6.000;2022-10-12T07:53:35;102430.19;;;10.37;100.00
10806;BME280;5455;53.224;6.000;2022-10-12T07:56:05;102432.84;;;10.50;100.00
10806;BME280;5455;53.224;6.000;2022-10-12T07:58:33;102433.53;;;10.65;100.00
10806;BME280;5455;53.224;6.000;2022-10-12T08:01:05;102434.53;;;10.77;100.00
10806;BME280;5455;53.224;6.000;2022-10-12T08:03:33;102435.22;;;10.91;100.00
10806;BME280;5455;53.224;6.000;2022-10-12T08:06:13;102435.09;;;11.05;100.00
10806;BME280;5455;53.224;6.000;2022-10-12T08:08:41;102433.63;;;11.16;100.00
10806;BME280;5455;53.224;6.000;2022-10-12T08:11:09;102432.81;;;11.24;100.00
10806;BME280;5455;53.224;6.000;2022-10-12T08:13:37;102434.59;;;11.37;100.00
10806;BME280;5455;53.224;6.000;2022-10-12T08:16:08;102432.66;;;11.46;100.00
10806;BME280;5455;53.224;6.000;2022-10-12T08:18:36;102432.81;;;11.50;100.00
10806;BME280;5455;53.224;6.000;2022-10-12T08:21:05;102428.88;;;11.51;100.00
10806;BME280;5455;53.224;6.000;2022-10-12T08:23:34;102434.41;;;11.51;100.00
10806;BME280;5455;53.224;6.000;2022-10-12T08:26:03;102428.88;;;11.51;100.00
10806;BME280;5455;53.224;6.000;2022-10-12T08:28:31;102442.56;;;11.56;100.00
10806;BME280;5455;53.224;6.000;2022-10-12T08:30:59;102437.50;;;11.58;100.00
10806;BME280;5455;53.224;6.000;2022-10-12T08:33:28;102432.16;;;11.61;100.00
10806;BME280;5455;53.224;6.000;2022-10-12T08:36:00;102448.06;;;11.65;100.00
10806;BME280;5455;53.224;6.000;2022-10-12T08:38:29;102442.56;;;11.73;100.00
10806;BME280;5455;53.224;6.000;2022-10-12T08:43:48;102440.25;;;11.84;100.00
10806;BME280;5455;53.224;6.000;2022-10-12T08:46:20;102444.16;;;11.91;100.00
10806;BME280;5455;53.224;6.000;2022-10-12T08:49:33;102440.06;;;11.97;100.00
10806;BME280;5455;53.224;6.000;2022-10-12T08:51:56;102434.03;;;12.04;100.00
10806;BME280;5455;53.224;6.000;2022-10-12T08:54:33;102439.38;;;12.09;100.00
10806;BME280;5455;53.224;6.000;2022-10-12T08:57:03;102436.25;;;12.19;100.00
10806;BME280;5455;53.224;6.000;2022-10-12T08:59:32;102438.38;;;12.22;99.22
10806;BME280;5455;53.224;6.000;2022-10-12T09:07:29;102437.81;;;12.37;98.77
10806;BME280;5455;53.224;6.000;2022-10-12T09:18:42;102452.06;;;12.77;97.13
10806;BME280;5455;53.224;6.000;2022-10-12T09:21:16;102448.94;;;12.87;95.98
10806;BME280;5455;53.224;6.000;2022-10-12T09:23:44;102451.03;;;12.90;95.61
10806;BME280;5455;53.224;6.000;2022-10-12T09:26:34;102450.00;;;12.95;95.60
10806;BME280;5455;53.224;6.000;2022-10-12T09:34:36;102450.19;;;13.19;93.69
10806;BME280;5455;53.224;6.000;2022-10-12T09:37:04;102445.88;;;13.30;93.19
10806;BME280;5455;53.224;6.000;2022-10-12T09:39:34;102451.00;;;13.40;93.16
10806;BME280;5455;53.224;6.000;2022-10-12T09:42:03;102439.88;;;13.49;92.81
10806;BME280;5455;53.224;6.000;2022-10-12T09:44:43;102446.69;;;13.51;92.12
10806;BME280;5455;53.224;6.000;2022-10-12T09:47:24;102445.19;;;13.54;91.32
10806;BME280;5455;53.224;6.000;2022-10-12T09:49:58;102441.19;;;13.63;92.71
10806;BME280;5455;53.224;6.000;2022-10-12T09:52:29;102447.22;;;13.77;92.38
10806;BME280;5455;53.224;6.000;2022-10-12T09:55:00;102446.13;;;13.91;91.03
10806;BME280;5455;53.224;6.000;2022-10-12T09:57:35;102432.94;;;13.88;88.45
10806;BME280;5455;53.224;6.000;2022-10-12T10:00:24;102432.59;;;13.89;88.86
10806;BME280;5455;53.224;6.000;2022-10-12T10:02:52;102434.56;;;13.89;88.04
10806;BME280;5455;53.224;6.000;2022-10-12T10:05:29;102434.69;;;13.92;89.14
10806;BME280;5455;53.224;6.000;2022-10-12T10:10:54;102435.41;;;14.01;89.27
10806;BME280;5455;53.224;6.000;2022-10-12T10:13:27;102427.66;;;14.07;89.46
10806;BME280;5455;53.224;6.000;2022-10-12T10:16:03;102427.47;;;14.12;89.47
10806;BME280;5455;53.224;6.000;2022-10-12T10:18:35;102432.41;;;14.18;90.08
10806;BME280;5455;53.224;6.000;2022-10-12T10:21:05;102430.56;;;14.22;87.84
10806;BME280;5455;53.224;6.000;2022-10-12T10:23:49;102422.38;;;14.26;86.88
10806;BME280;5455;53.224;6.000;2022-10-12T10:26:20;102427.56;;;14.27;87.18
10806;BME280;5455;53.224;6.000;2022-10-12T10:28:51;102416.38;;;14.36;87.17
10806;BME280;5455;53.224;6.000;2022-10-12T10:31:25;102418.00;;;14.37;86.93
10806;BME280;5455;53.224;6.000;2022-10-12T10:36:43;102415.59;;;14.48;86.53
10806;BME280;5455;53.224;6.000;2022-10-12T10:39:43;102415.13;;;14.58;85.78
10806;BME280;5455;53.224;6.000;2022-10-12T10:42:18;102405.41;;;14.64;83.59
10806;BME280;5455;53.224;6.000;2022-10-12T10:45:05;102399.72;;;14.72;82.26
10806;BME280;5455;53.224;6.000;2022-10-12T10:47:43;102400.19;;;14.74;81.85
10806;BME280;5455;53.224;6.000;2022-10-12T10:50:42;102395.44;;;14.75;80.35
10806;BME280;5455;53.224;6.000;2022-10-12T10:53:20;102389.97;;;14.78;79.64
10806;BME280;5455;53.224;6.000;2022-10-12T10:56:07;102386.97;;;14.83;79.42
10806;BME280;5455;53.224;6.000;2022-10-12T10:58:48;102389.06;;;14.86;80.06
10806;BME280;5455;53.224;6.000;2022-10-12T11:04:28;102378.16;;;14.94;80.79
10806;BME280;5455;53.224;6.000;2022-10-12T11:07:02;102374.78;;;15.00;79.68
10806;BME280;5455;53.224;6.000;2022-10-12T11:09:45;102367.78;;;15.18;79.17
10806;BME280;5455;53.224;6.000;2022-10-12T11:12:20;102366.72;;;15.23;79.02
10806;BME280;5455;53.224;6.000;2022-10-12T11:15:11;102357.75;;;15.29;77.62
10806;BME280;5455;53.224;6.000;2022-10-12T11:17:46;102357.41;;;15.31;76.70
10806;BME280;5455;53.224;6.000;2022-10-12T11:20:36;102355.25;;;15.24;78.16
10806;BME280;5455;53.224;6.000;2022-10-12T11:23:28;102346.91;;;15.24;77.33
10806;BME280;5455;53.224;6.000;2022-10-12T11:26:09;102343.06;;;15.29;78.24
10806;BME280;5455;53.224;6.000;2022-10-12T11:28:39;102343.00;;;15.41;74.83
10806;BME280;5455;53.224;6.000;2022-10-12T11:31:15;102350.97;;;15.42;74.23
10806;BME280;5455;53.224;6.000;2022-10-12T11:33:45;102350.66;;;15.44;76.02
10806;BME280;5455;53.224;6.000;2022-10-12T11:36:17;102345.19;;;15.48;74.28
10806;BME280;5455;53.224;6.000;2022-10-12T11:39:02;102346.91;;;15.52;74.61
10806;BME280;5455;53.224;6.000;2022-10-12T11:41:42;102346.00;;;15.48;74.72
10806;BME280;5455;53.224;6.000;2022-10-12T11:44:43;102337.34;;;15.37;75.45
10806;BME280;5455;53.224;6.000;2022-10-12T11:47:24;102338.56;;;15.52;75.00
10806;BME280;5455;53.224;6.000;2022-10-12T11:53:11;102338.88;;;15.78;72.71
10806;BME280;5455;53.224;6.000;2022-10-12T11:58:18;102311.16;;;15.82;72.78
10806;BME280;5455;53.224;6.000;2022-10-12T12:01:36;102308.56;;;15.89;72.04
10806;BME280;5455;53.224;6.000;2022-10-12T12:07:39;102303.69;;;16.02;68.72
10806;BME280;5455;53.224;6.000;2022-10-12T12:16:19;102295.81;;;15.88;69.23
10806;BME280;5455;53.224;6.000;2022-10-12T12:18:30;102298.41;;;15.81;70.03
10806;BME280;5455;53.224;6.000;2022-10-12T12:21:06;102295.63;;;15.81;70.78
10806;BME280;5455;53.224;6.000;2022-10-12T12:23:38;102296.44;;;15.81;70.91
10806;BME280;5455;53.224;6.000;2022-10-12T12:28:48;102274.50;;;15.95;67.77
10806;BME280;5455;53.224;6.000;2022-10-12T12:34:03;102251.00;;;15.93;68.92
10806;BME280;5455;53.224;6.000;2022-10-12T12:36:35;102253.44;;;15.94;67.90
10806;BME280;5455;53.224;6.000;2022-10-12T12:39:07;102265.09;;;15.84;67.17
10806;BME280;5455;53.224;6.000;2022-10-12T12:41:52;102261.25;;;15.89;68.94
10806;BME280;5455;53.224;6.000;2022-10-12T12:49:56;102249.34;;;16.08;67.84
10806;BME280;5455;53.224;6.000;2022-10-12T12:52:31;102254.78;;;16.01;67.66
10806;BME280;5455;53.224;6.000;2022-10-12T13:09:12;102234.28;;;16.09;65.50
10806;BME280;5455;53.224;6.000;2022-10-12T13:12:05;102227.09;;;16.08;65.16
10806;BME280;5455;53.224;6.000;2022-10-12T13:14:41;102222.25;;;16.05;66.46
10806;BME280;5455;53.224;6.000;2022-10-12T13:20:26;102228.81;;;16.12;66.90
10806;BME280;5455;53.224;6.000;2022-10-12T13:22:58;102225.66;;;16.14;65.83
10806;BME280;5455;53.224;6.000;2022-10-12T13:25:35;102229.84;;;16.23;64.90
10806;BME280;5455;53.224;6.000;2022-10-12T13:28:06;102233.53;;;16.27;64.10
10806;BME280;5455;53.224;6.000;2022-10-12T13:33:11;102236.88;;;16.17;64.97
10806;BME280;5455;53.224;6.000;2022-10-12T13:35:54;102233.94;;;16.10;66.32
10806;BME280;5455;53.224;6.000;2022-10-12T13:38:26;102238.50;;;16.18;66.77
10806;BME280;5455;53.224;6.000;2022-10-12T13:41:12;102236.56;;;16.22;64.81
10806;BME280;5455;53.224;6.000;2022-10-12T13:43:51;102232.09;;;16.18;64.87
10806;BME280;5455;53.224;6.000;2022-10-12T13:46:50;102231.69;;;16.16;64.28
10806;BME280;5455;53.224;6.000;2022-10-12T13:49:26;102230.06;;;16.15;64.42
10806;BME280;5455;53.224;6.000;2022-10-12T13:52:23;102222.53;;;15.99;64.00
10806;BME280;5455;53.224;6.000;2022-10-12T13:54:54;102221.03;;;15.86;64.11
10806;BME280;5455;53.224;6.000;2022-10-12T13:57:38;102221.16;;;15.74;63.89
10806;BME280;5455;53.224;6.000;2022-10-12T14:02:42;102219.75;;;15.65;64.15
10806;BME280;5455;53.224;6.000;2022-10-12T14:05:22;102210.94;;;15.63;64.39
10806;BME280;5455;53.224;6.000;2022-10-12T14:07:52;102202.16;;;15.61;65.20
10806;BME280;5455;53.224;6.000;2022-10-12T14:10:31;102201.34;;;15.60;65.69
10806;BME280;5455;53.224;6.000;2022-10-12T14:13:01;102196.94;;;15.59;65.12
10806;BME280;5455;53.224;6.000;2022-10-12T14:15:33;102196.59;;;15.61;65.93
10806;BME280;5455;53.224;6.000;2022-10-12T14:18:02;102188.78;;;15.66;65.54
10806;BME280;5455;53.224;6.000;2022-10-12T14:20:35;102191.22;;;15.68;64.96
10806;BME280;5455;53.224;6.000;2022-10-12T14:23:19;102194.13;;;15.75;65.19
10806;BME280;5455;53.224;6.000;2022-10-12T14:25:52;102197.44;;;15.80;65.00
10806;BME280;5455;53.224;6.000;2022-10-12T14:30:54;102195.22;;;15.86;64.09
10806;BME280;5455;53.224;6.000;2022-10-12T14:33:24;102186.41;;;15.84;64.42
10806;BME280;5455;53.224;6.000;2022-10-12T14:36:12;102181.31;;;15.86;64.67
10806;BME280;5455;53.224;6.000;2022-10-12T14:38:48;102180.59;;;15.89;65.77
10806;BME280;5455;53.224;6.000;2022-10-12T14:41:36;102187.47;;;15.95;65.80
10806;BME280;5455;53.224;6.000;2022-10-12T14:44:12;102177.38;;;16.06;65.73
10806;BME280;5455;53.224;6.000;2022-10-12T14:47:03;102174.00;;;16.16;65.78
10806;BME280;5455;53.224;6.000;2022-10-12T14:49:44;102177.59;;;16.17;65.82
10806;BME280;5455;53.224;6.000;2022-10-12T14:52:32;102181.13;;;16.14;65.64
10806;BME280;5455;53.224;6.000;2022-10-12T14:55:18;102176.38;;;16.14;65.72
10806;BME280;5455;53.224;6.000;2022-10-12T14:57:55;102176.44;;;16.18;66.43
10806;BME280;5455;53.224;6.000;2022-10-12T15:00:32;102155.72;;;16.15;66.19
10806;BME280;5455;53.224;6.000;2022-10-12T15:03:06;102153.66;;;16.12;66.31
10806;BME280;5455;53.224;6.000;2022-10-12T15:05:35;102149.13;;;16.04;65.84
10806;BME280;5455;53.224;6.000;2022-10-12T15:08:07;102149.56;;;16.06;65.94
10806;BME280;5455;53.224;6.000;2022-10-12T15:10:40;102157.25;;;16.13;65.04
10806;BME280;5455;53.224;6.000;2022-10-12T15:13:12;102152.50;;;16.13;64.61
10806;BME280;5455;53.224;6.000;2022-10-12T15:15:44;102151.19;;;16.07;64.39
10806;BME280;5455;53.224;6.000;2022-10-12T15:18:15;102149.91;;;16.05;64.36